Licking, Missouri
Current Conditions -  °F | °C
As of 12:58 PM on Friday 31 Oct 2014 (Local Time) from KTBN Reporting Station
Haze Haze  
Wind Chill: 36°   Ceiling: Unl
Heat Index: 45°   Visibility: 6mi
Dew Point: 20°   Wind: 22mph
Humidity: 37%   Direction: 330°NNW
Pressure: 30.33"   Gusts: 29mph
Location:  37.5°N, 91.86°W
Report Text: KTBN 311758Z AUTO 33019G25KT 6SM HZ CLR 07/M07 A3033 RMK AO2 PK WND 36030/03 SLP277 T00711067 10079 20058 50010
Loading
Personal Weather Stations






























Interactive Weather Map
Tropical Storm Tracking
New forecast layout! Learn more

10-Day Weather Forecast

Advertisements
Track Severe Weather on mobile